This is the latest recevied weather packets stored in our database for station/object N3MFL. If no packets are shown the sender has not sent any weather packets the latest 10 day(s).
| Time | Temp. | Humidity | Pressure | Rain* | Wind** | Luminosity | Snow |
|---|---|---|---|---|---|---|---|
| 1777511503 | 7.78° C | 91% | 1013.4 hPa | 0 mm | - | 0 W/m² | - |
| 1777510896 | 7.78° C | 90% | 1013.3 hPa | 0 mm | - | 0 W/m² | - |
| 1777509986 | 7.78° C | 89% | 1013.3 hPa | 0 mm | - | 0 W/m² | - |
| 1777509075 | 8.33° C | 89% | 1013.4 hPa | 0 mm | - | 0 W/m² | - |
| 1777508772 | 8.33° C | 88% | 1013.4 hPa | 0 mm | - | 0 W/m² | - |
| 1777507863 | 8.33° C | 87% | 1013.3 hPa | 0 mm | - | 0 W/m² | - |
| 1777507560 | 8.33° C | 86% | 1013.2 hPa | 0 mm | - | 0 W/m² | - |
| 1777506954 | 8.33° C | 86% | 1013.2 hPa | 0 mm | - | 0 W/m² | - |
| 1777506348 | 8.89° C | 86% | 1013.4 hPa | 0 mm | - | 1 W/m² | - |
| 1777505739 | 8.89° C | 84% | 1013.4 hPa | 0 mm | - | 3 W/m² | - |
| 1777505437 | 8.89° C | 83% | 1013.4 hPa | 0 mm | - | 5 W/m² | - |
| 1777500586 | 12.22° C | 72% | 1013.2 hPa | 0 mm | - | 72 W/m² | - |
| 1777498160 | 13.33° C | 69% | 1013.6 hPa | 0 mm | - | 174 W/m² | - |
| 1777497857 | 13.33° C | 69% | 1013.7 hPa | 0 mm | - | 188 W/m² | - |
| 1777497250 | 13.89° C | 67% | 1013.9 hPa | 0 mm | - | 191 W/m² | - |
| 1777496946 | 13.89° C | 68% | 1013.9 hPa | 0 mm | - | 234 W/m² | - |
| 1777496644 | 13.89° C | 66% | 1013.7 hPa | 0 mm | - | 313 W/m² | - |
| 1777496340 | 13.89° C | 68% | 1013.6 hPa | 0 mm | - | 383 W/m² | - |
| 1777495732 | 13.33° C | 69% | 1013.4 hPa | 0 mm | - | 288 W/m² | - |
| 1777494822 | 13.89° C | 67% | 1013.6 hPa | 0 mm | - | 200 W/m² | - |
| 1777494216 | 13.89° C | 67% | 1013.6 hPa | 0 mm | - | 176 W/m² | - |
| 1777493913 | 14.44° C | 66% | 1013.5 hPa | 0 mm | - | 175 W/m² | - |
| 1777493309 | 14.44° C | 66% | 1013.7 hPa | 0 mm | - | 195 W/m² | - |
| 1777493005 | 15° C | 64% | 1013.6 hPa | 0 mm | - | 219 W/m² | - |
| 1777492702 | 15° C | 64% | 1013.9 hPa | 0 mm | - | 237 W/m² | - |
* Rain latest hour (hover to see other rain measurements)
** Current wind speed in m/s (hover to see current wind gust speed)